createdAt,value
2023-04-20T00:00:12.992Z,13.50
2023-04-20T00:02:46.030Z,14.30
2023-04-20T00:04:58.749Z,12.90
2023-04-20T00:07:11.340Z,11.40
2023-04-20T00:09:24.088Z,11.30
2023-04-20T00:11:36.928Z,11.00
2023-04-20T00:13:49.543Z,14.10
2023-04-20T00:16:03.051Z,13.00
2023-04-20T00:18:16.291Z,11.90
2023-04-20T00:20:28.935Z,12.20
2023-04-20T00:22:41.475Z,13.40
2023-04-20T00:24:54.116Z,11.90
2023-04-20T00:27:06.826Z,14.10
2023-04-20T00:29:19.434Z,24.90
2023-04-20T00:31:32.295Z,39.10
2023-04-20T00:33:44.875Z,22.60
2023-04-20T00:35:57.504Z,16.00
2023-04-20T00:38:10.015Z,12.80
2023-04-20T00:40:22.618Z,11.50
2023-04-20T00:42:35.483Z,12.00
2023-04-20T00:44:47.992Z,12.20
2023-04-20T00:47:00.732Z,12.00
2023-04-20T00:49:13.348Z,11.00
2023-04-20T00:51:27.696Z,11.20
2023-04-20T00:53:41.081Z,11.50
2023-04-20T00:55:53.708Z,12.00
2023-04-20T00:58:06.625Z,11.60
2023-04-20T01:00:19.284Z,11.70
2023-04-20T01:02:31.932Z,11.40
2023-04-20T01:04:47.166Z,11.30
2023-04-20T01:06:59.717Z,11.40
2023-04-20T01:09:15.187Z,11.50
2023-04-20T01:11:27.912Z,11.10
2023-04-20T01:13:40.464Z,11.20
2023-04-20T01:15:53.079Z,10.90
2023-04-20T01:18:06.050Z,11.10
2023-04-20T01:20:20.357Z,10.90
2023-04-20T01:22:32.897Z,11.00
2023-04-20T01:24:45.978Z,11.00
2023-04-20T01:26:58.562Z,11.20
2023-04-20T01:29:11.252Z,10.80
2023-04-20T01:31:23.837Z,11.50
2023-04-20T01:33:37.382Z,13.90
2023-04-20T01:35:51.892Z,13.30
2023-04-20T01:38:04.453Z,12.30
2023-04-20T01:40:17.072Z,11.60
2023-04-20T01:42:29.655Z,11.80
2023-04-20T01:44:42.201Z,10.90
2023-04-20T01:46:54.769Z,11.00
2023-04-20T01:49:08.211Z,11.10
2023-04-20T01:51:20.781Z,10.90
2023-04-20T01:53:33.340Z,10.90
2023-04-20T01:55:45.839Z,10.30
2023-04-20T01:58:00.223Z,11.30
2023-04-20T02:00:13.473Z,11.10
2023-04-20T02:02:26.079Z,10.70
2023-04-20T02:04:38.862Z,10.90
2023-04-20T02:06:51.392Z,10.80
2023-04-20T02:09:04.018Z,11.30
2023-04-20T02:11:16.558Z,11.20
2023-04-20T02:13:29.105Z,11.80
2023-04-20T02:15:41.632Z,12.20
2023-04-20T02:17:54.233Z,12.90
2023-04-20T02:20:09.082Z,12.80
2023-04-20T02:22:21.605Z,12.70
2023-04-20T02:24:34.180Z,12.50
2023-04-20T02:26:46.766Z,12.20
2023-04-20T02:28:59.350Z,13.10
2023-04-20T02:31:12.112Z,13.10
2023-04-20T02:33:24.716Z,13.30
2023-04-20T02:35:37.279Z,13.30
2023-04-20T02:37:49.829Z,13.30
2023-04-20T02:40:02.537Z,13.60
2023-04-20T02:42:15.143Z,14.10
2023-04-20T02:44:27.677Z,14.50
2023-04-20T02:46:40.288Z,14.30
2023-04-20T02:48:52.960Z,13.40
2023-04-20T02:51:05.516Z,14.20
2023-04-20T02:53:18.154Z,13.10
2023-04-20T02:55:31.068Z,19.70
2023-04-20T02:57:43.605Z,16.70
2023-04-20T02:59:56.514Z,26.70
2023-04-20T03:02:09.189Z,25.30
2023-04-20T03:04:22.216Z,16.90
2023-04-20T03:06:38.552Z,14.80
2023-04-20T03:08:51.385Z,13.60
2023-04-20T03:11:04.073Z,13.00
2023-04-20T03:13:16.856Z,12.10
2023-04-20T03:15:29.434Z,12.10
2023-04-20T03:17:41.976Z,12.40
2023-04-20T03:19:54.592Z,11.90
2023-04-20T03:22:07.643Z,12.00
2023-04-20T03:24:20.435Z,12.00
2023-04-20T03:26:32.909Z,11.80
2023-04-20T03:28:45.480Z,11.50
2023-04-20T03:30:57.990Z,11.30
2023-04-20T03:33:11.053Z,11.50
2023-04-20T03:35:23.683Z,12.00
2023-04-20T03:37:37.400Z,12.10
2023-04-20T03:39:49.920Z,12.00
2023-04-20T03:42:03.651Z,12.50
2023-04-20T03:44:16.741Z,12.10
2023-04-20T03:46:29.323Z,12.20
2023-04-20T03:48:41.906Z,12.60
2023-04-20T03:50:54.593Z,12.50
2023-04-20T03:53:07.105Z,12.90
2023-04-20T03:55:19.762Z,12.80
2023-04-20T03:57:33.555Z,13.00
2023-04-20T03:59:46.106Z,12.20
2023-04-20T04:02:00.136Z,12.00
2023-04-20T04:04:13.672Z,13.20
2023-04-20T04:06:27.424Z,12.30
2023-04-20T04:08:40.237Z,12.40
2023-04-20T04:10:52.996Z,12.40
2023-04-20T04:13:05.718Z,12.20
2023-04-20T04:15:19.557Z,12.20
2023-04-20T04:17:32.391Z,12.30
2023-04-20T04:19:45.249Z,11.30
2023-04-20T04:21:58.020Z,12.20
2023-04-20T04:24:10.694Z,12.20
2023-04-20T04:26:24.841Z,12.30
2023-04-20T04:28:37.659Z,11.90
2023-04-20T04:30:50.464Z,12.40
2023-04-20T04:33:05.108Z,12.10
2023-04-20T04:35:18.046Z,11.70
2023-04-20T04:37:31.043Z,11.80
2023-04-20T04:39:43.797Z,11.80
2023-04-20T04:41:57.859Z,12.20
2023-04-20T04:44:11.204Z,12.00
2023-04-20T04:46:25.505Z,11.50
2023-04-20T04:48:40.748Z,12.20
2023-04-20T04:50:53.501Z,12.40
2023-04-20T04:53:06.506Z,12.10
2023-04-20T04:55:19.472Z,11.90
2023-04-20T04:57:32.209Z,11.60
2023-04-20T04:59:45.035Z,12.60
2023-04-20T05:01:57.821Z,12.90
2023-04-20T05:04:14.483Z,12.10
2023-04-20T05:06:27.357Z,12.20
2023-04-20T05:08:40.342Z,13.10
2023-04-20T05:10:52.957Z,12.60
2023-04-20T05:13:05.792Z,12.50
2023-04-20T05:15:18.794Z,26.10
2023-04-20T05:17:31.607Z,21.40
2023-04-20T05:19:44.281Z,16.20
2023-04-20T05:22:01.513Z,16.40
2023-04-20T05:24:19.480Z,16.00
2023-04-20T05:26:32.122Z,15.50
2023-04-20T05:28:44.787Z,17.00
2023-04-20T05:30:57.421Z,14.90
2023-04-20T05:33:10.090Z,13.20
2023-04-20T05:35:22.871Z,14.00
2023-04-20T05:37:35.592Z,13.40
2023-04-20T05:39:48.240Z,13.50
2023-04-20T05:42:01.703Z,13.80
2023-04-20T05:44:14.333Z,14.60
2023-04-20T05:46:27.598Z,14.30
2023-04-20T05:48:40.519Z,13.50
2023-04-20T05:50:55.093Z,13.70
2023-04-20T05:53:07.716Z,15.00
2023-04-20T05:55:22.658Z,14.60
2023-04-20T05:57:42.484Z,14.60
2023-04-20T05:59:56.092Z,15.30
2023-04-20T06:02:08.799Z,14.70
2023-04-20T06:04:21.633Z,15.20
2023-04-20T06:06:34.343Z,17.90
2023-04-20T06:08:46.958Z,16.40
2023-04-20T06:10:59.529Z,15.80
2023-04-20T06:13:12.067Z,16.30
2023-04-20T06:15:24.577Z,15.80
2023-04-20T06:17:40.405Z,16.80
2023-04-20T06:19:53.295Z,17.10
2023-04-20T06:22:07.850Z,17.20
2023-04-20T06:24:20.501Z,17.60
2023-04-20T06:26:33.017Z,17.20
2023-04-20T06:28:47.267Z,18.20
2023-04-20T06:30:59.873Z,17.30
2023-04-20T06:33:17.038Z,18.60
2023-04-20T06:35:29.863Z,17.50
2023-04-20T06:37:42.415Z,17.80
2023-04-20T06:39:55.064Z,16.20
2023-04-20T06:42:08.572Z,19.20
2023-04-20T06:44:21.082Z,18.30
2023-04-20T06:46:33.690Z,17.70
2023-04-20T06:48:46.357Z,19.20
2023-04-20T06:50:58.891Z,19.00
2023-04-20T06:53:11.451Z,18.90
2023-04-20T06:55:24.011Z,19.80
2023-04-20T06:57:39.577Z,19.70
2023-04-20T06:59:52.121Z,20.50
2023-04-20T07:02:04.750Z,20.30
2023-04-20T07:04:17.494Z,20.30
2023-04-20T07:06:30.103Z,19.40
2023-04-20T07:08:42.726Z,20.70
2023-04-20T07:10:55.252Z,19.80
2023-04-20T07:13:07.785Z,19.50
2023-04-20T07:15:20.462Z,20.30
2023-04-20T07:17:33.504Z,21.00
2023-04-20T07:19:46.135Z,20.30
2023-04-20T07:21:58.887Z,21.30
2023-04-20T07:24:11.585Z,21.00
2023-04-20T07:26:24.829Z,21.00
2023-04-20T07:28:37.473Z,21.60
2023-04-20T07:30:49.984Z,20.50
2023-04-20T07:33:02.720Z,20.00
2023-04-20T07:35:15.490Z,20.20
2023-04-20T07:37:28.074Z,20.90
2023-04-20T07:39:40.734Z,20.80
2023-04-20T07:41:53.264Z,20.20
2023-04-20T07:44:05.832Z,19.50
2023-04-20T07:46:22.548Z,20.20
2023-04-20T07:48:35.191Z,20.90
2023-04-20T07:50:47.828Z,20.90
2023-04-20T07:53:00.403Z,20.60
2023-04-20T07:55:14.292Z,20.50
2023-04-20T07:57:28.627Z,20.70
2023-04-20T07:59:41.347Z,20.70
2023-04-20T08:01:59.880Z,20.50
2023-04-20T08:04:12.661Z,20.00
2023-04-20T08:06:25.657Z,20.70
2023-04-20T08:08:38.210Z,20.40
2023-04-20T08:10:50.836Z,20.20
2023-04-20T08:13:03.580Z,21.60
2023-04-20T08:15:16.422Z,21.70
2023-04-20T08:17:29.053Z,22.10
2023-04-20T08:19:43.743Z,22.50
2023-04-20T08:21:57.616Z,21.60
2023-04-20T08:24:10.192Z,22.10
2023-04-20T08:26:25.258Z,21.30
2023-04-20T08:28:37.850Z,22.30
2023-04-20T08:30:51.212Z,23.10
2023-04-20T08:33:03.923Z,22.30
2023-04-20T08:35:16.586Z,22.40
2023-04-20T08:37:31.269Z,23.00
2023-04-20T08:39:45.460Z,22.20
2023-04-20T08:41:58.292Z,22.80
2023-04-20T08:44:11.038Z,23.20
2023-04-20T08:46:24.526Z,23.60
2023-04-20T08:48:38.028Z,22.60
2023-04-20T08:50:51.129Z,22.40
2023-04-20T08:53:04.535Z,21.70
2023-04-20T08:55:18.677Z,22.20
2023-04-20T08:57:31.221Z,22.80
2023-04-20T08:59:43.891Z,22.40
2023-04-20T09:01:56.555Z,20.80
2023-04-20T09:04:20.092Z,20.70
2023-04-20T09:06:34.234Z,20.70
2023-04-20T09:08:46.854Z,20.80
2023-04-20T09:10:59.411Z,19.60
2023-04-20T09:13:22.726Z,20.60
2023-04-20T09:15:35.456Z,19.90
2023-04-20T09:17:48.011Z,21.10
2023-04-20T09:20:01.028Z,21.40
2023-04-20T09:22:13.792Z,20.50
2023-04-20T09:24:31.965Z,20.70
2023-04-20T09:26:44.535Z,19.70
2023-04-20T09:28:57.153Z,20.20
2023-04-20T09:31:19.057Z,20.50
2023-04-20T09:33:33.421Z,21.30
2023-04-20T09:35:46.054Z,22.20
2023-04-20T09:37:59.721Z,21.90
2023-04-20T09:40:14.003Z,20.00
2023-04-20T09:42:28.863Z,19.10
2023-04-20T09:44:42.006Z,19.50
2023-04-20T09:46:54.632Z,19.20
2023-04-20T09:49:09.689Z,19.70
2023-04-20T09:51:22.820Z,19.30
2023-04-20T09:53:36.188Z,19.20
2023-04-20T09:55:51.222Z,19.10
2023-04-20T09:58:04.870Z,20.50
2023-04-20T10:00:17.939Z,20.90
2023-04-20T10:02:30.984Z,19.90
2023-04-20T10:04:57.422Z,20.20
2023-04-20T10:07:10.023Z,19.60
2023-04-20T10:09:25.912Z,20.40
2023-04-20T10:11:53.271Z,21.80
2023-04-20T10:14:18.221Z,19.50
2023-04-20T10:16:31.010Z,19.80
2023-04-20T10:18:43.701Z,19.30
2023-04-20T10:21:09.455Z,20.60
2023-04-20T10:23:22.043Z,19.90
2023-04-20T10:25:34.636Z,19.20
2023-04-20T10:28:13.375Z,19.90
2023-04-20T10:30:27.536Z,19.30
2023-04-20T10:32:40.238Z,19.50
2023-04-20T10:35:07.744Z,19.40
2023-04-20T10:37:20.769Z,19.30
2023-04-20T10:39:33.331Z,19.10
2023-04-20T10:41:53.427Z,20.00
2023-04-20T10:44:10.154Z,18.70
2023-04-20T10:46:24.600Z,19.30
2023-04-20T10:48:37.195Z,19.40
2023-04-20T10:50:49.727Z,19.90
2023-04-20T10:53:03.948Z,18.70
2023-04-20T10:55:21.289Z,18.20
2023-04-20T10:57:33.895Z,19.10
2023-04-20T10:59:46.850Z,17.40
2023-04-20T11:02:01.363Z,17.20
2023-04-20T11:04:17.861Z,18.20
2023-04-20T11:06:32.267Z,18.00
2023-04-20T11:08:44.782Z,17.30
2023-04-20T11:10:57.346Z,18.60
2023-04-20T11:13:22.224Z,17.80
2023-04-20T11:15:35.317Z,18.10
2023-04-20T11:17:47.957Z,18.70
2023-04-20T11:20:12.180Z,18.40
2023-04-20T11:22:24.698Z,17.50
2023-04-20T11:24:38.206Z,17.20
2023-04-20T11:26:54.164Z,18.00
2023-04-20T11:29:06.872Z,18.70
2023-04-20T11:31:19.565Z,18.40
2023-04-20T11:33:34.083Z,18.60
2023-04-20T11:35:46.726Z,17.30
2023-04-20T11:37:59.455Z,18.00
2023-04-20T11:40:13.288Z,19.80
2023-04-20T11:42:25.835Z,17.90
2023-04-20T11:44:41.215Z,16.80
2023-04-20T11:46:57.029Z,17.10
2023-04-20T11:49:09.689Z,17.30
2023-04-20T11:51:22.310Z,18.20
2023-04-20T11:53:34.885Z,17.60
2023-04-20T11:55:47.460Z,17.00
2023-04-20T11:58:00.266Z,17.20
2023-04-20T12:00:13.849Z,16.60
2023-04-20T12:02:26.873Z,16.50
2023-04-20T12:04:39.771Z,17.20
2023-04-20T12:06:52.439Z,16.00
2023-04-20T12:09:06.367Z,15.60
2023-04-20T12:11:19.077Z,15.40
2023-04-20T12:13:31.621Z,15.40
2023-04-20T12:15:44.191Z,15.50
2023-04-20T12:17:56.851Z,15.80
2023-04-20T12:20:12.073Z,15.60
2023-04-20T12:22:24.813Z,15.60
2023-04-20T12:24:37.411Z,15.90
2023-04-20T12:26:50.083Z,15.20
2023-04-20T12:29:02.711Z,14.70
2023-04-20T12:31:15.303Z,14.90
2023-04-20T12:33:28.286Z,14.60
2023-04-20T12:35:41.022Z,15.30
2023-04-20T12:37:53.733Z,16.30
2023-04-20T12:40:07.400Z,16.70
2023-04-20T12:42:19.994Z,17.20
2023-04-20T12:44:32.593Z,17.50
2023-04-20T12:46:45.561Z,18.30
2023-04-20T12:48:58.181Z,17.40
2023-04-20T12:51:10.812Z,16.30
2023-04-20T12:53:23.381Z,16.70
2023-04-20T12:55:35.907Z,16.50
2023-04-20T12:57:48.455Z,14.70
2023-04-20T13:00:03.285Z,14.10
2023-04-20T13:02:16.273Z,13.60
2023-04-20T13:04:29.230Z,13.90
2023-04-20T13:06:42.145Z,14.10
2023-04-20T13:08:54.704Z,13.30
2023-04-20T13:11:07.455Z,12.90
2023-04-20T13:13:20.033Z,12.70
2023-04-20T13:17:50.545Z,12.40
2023-04-20T13:20:04.948Z,12.00
2023-04-20T13:22:19.053Z,10.50
2023-04-20T13:24:31.908Z,10.60
2023-04-20T13:26:44.476Z,11.60
2023-04-20T13:28:58.383Z,11.50
2023-04-20T13:31:11.661Z,11.90
2023-04-20T13:33:24.668Z,11.60
2023-04-20T13:35:37.245Z,11.80
2023-04-20T13:37:50.375Z,11.40
2023-04-20T13:40:04.310Z,10.80
2023-04-20T13:42:16.862Z,10.30
2023-04-20T13:44:29.393Z,9.40
2023-04-20T13:46:46.236Z,8.80
2023-04-20T13:48:59.008Z,9.30
2023-04-20T13:51:11.559Z,10.60
2023-04-20T13:53:24.145Z,9.90
2023-04-20T13:55:36.685Z,9.20
2023-04-20T13:57:49.232Z,12.30
2023-04-20T14:00:02.199Z,14.60
2023-04-20T14:02:14.809Z,14.10
2023-04-20T14:04:27.546Z,14.30
2023-04-20T14:06:40.126Z,13.90
2023-04-20T14:08:52.911Z,12.90
2023-04-20T14:11:05.882Z,10.90
2023-04-20T14:13:18.639Z,12.30
2023-04-20T14:15:31.502Z,8.70
2023-04-20T14:17:44.286Z,7.50
2023-04-20T14:19:56.913Z,7.60
2023-04-20T14:22:09.539Z,6.90
2023-04-20T14:24:22.055Z,6.90
2023-04-20T14:26:34.725Z,7.00
2023-04-20T14:28:47.489Z,6.70
2023-04-20T14:31:01.758Z,7.20
2023-04-20T14:33:14.458Z,7.00
2023-04-20T14:35:28.360Z,6.80
2023-04-20T14:37:41.183Z,6.80
2023-04-20T14:39:53.698Z,6.80
2023-04-20T14:42:07.600Z,6.50
2023-04-20T14:44:20.331Z,6.90
2023-04-20T14:46:33.131Z,6.80
2023-04-20T14:48:46.445Z,6.80
2023-04-20T14:50:59.060Z,6.00
2023-04-20T14:53:11.704Z,5.70
2023-04-20T14:55:25.772Z,5.50
2023-04-20T14:57:38.555Z,4.60
2023-04-20T14:59:51.123Z,4.70
2023-04-20T15:02:05.788Z,4.90
2023-04-20T15:04:19.028Z,4.70
2023-04-20T15:06:32.124Z,4.70
2023-04-20T15:08:44.634Z,4.10
2023-04-20T15:10:57.270Z,4.20
2023-04-20T15:13:11.201Z,4.20
2023-04-20T15:15:25.498Z,4.00
2023-04-20T15:17:40.799Z,4.10
2023-04-20T15:19:53.379Z,3.60
2023-04-20T15:22:05.880Z,3.20
2023-04-20T15:24:18.663Z,3.80
2023-04-20T15:26:31.436Z,3.90
2023-04-20T15:28:45.060Z,3.60
2023-04-20T15:30:57.643Z,3.60
2023-04-20T15:33:11.227Z,3.20
2023-04-20T15:35:23.934Z,4.00
2023-04-20T15:37:36.453Z,3.90
2023-04-20T15:39:49.002Z,3.90
2023-04-20T15:42:02.962Z,3.80
2023-04-20T15:44:15.890Z,4.20
2023-04-20T15:46:28.581Z,4.00
2023-04-20T15:48:41.329Z,3.80
2023-04-20T15:50:53.937Z,4.30
2023-04-20T15:53:07.306Z,4.30
2023-04-20T15:55:19.945Z,4.10
2023-04-20T15:57:32.506Z,3.80
2023-04-20T15:59:45.078Z,3.80
2023-04-20T16:01:57.725Z,4.30
2023-04-20T16:04:10.784Z,4.50
2023-04-20T16:06:24.174Z,4.60
2023-04-20T16:08:38.485Z,4.50
2023-04-20T16:10:51.116Z,4.60
2023-04-20T16:13:03.807Z,4.60
2023-04-20T16:15:16.794Z,5.10
2023-04-20T16:17:29.421Z,5.10
2023-04-20T16:19:41.963Z,5.10
2023-04-20T16:21:54.533Z,5.50
2023-04-20T16:24:07.330Z,5.60
2023-04-20T16:26:20.948Z,5.30
2023-04-20T16:28:33.562Z,5.20
2023-04-20T16:30:46.084Z,5.50
2023-04-20T16:32:59.889Z,5.60
2023-04-20T16:35:12.564Z,5.30
2023-04-20T16:37:25.222Z,5.40
2023-04-20T16:39:37.737Z,5.60
2023-04-20T16:41:51.149Z,5.80
2023-04-20T16:44:03.722Z,5.30
2023-04-20T16:46:17.983Z,5.40
2023-04-20T16:48:31.012Z,5.90
2023-04-20T16:50:44.122Z,5.90
2023-04-20T16:52:56.628Z,5.30
2023-04-20T16:55:09.502Z,5.30
2023-04-20T16:57:22.013Z,5.30
2023-04-20T16:59:34.727Z,5.30
2023-04-20T17:01:48.999Z,5.40
2023-04-20T17:04:01.793Z,5.30
2023-04-20T17:06:14.526Z,5.70
2023-04-20T17:08:27.090Z,5.80
2023-04-20T17:10:39.948Z,5.60
2023-04-20T17:12:52.482Z,5.20
2023-04-20T17:15:05.531Z,5.90
2023-04-20T17:17:18.057Z,5.30
2023-04-20T17:19:30.985Z,5.30
2023-04-20T17:21:45.484Z,5.90
2023-04-20T17:23:58.101Z,5.90
2023-04-20T17:26:10.711Z,5.80
2023-04-20T17:28:23.274Z,5.90
2023-04-20T17:30:35.884Z,5.70
2023-04-20T17:32:48.540Z,6.00
2023-04-20T17:35:01.335Z,6.10
2023-04-20T17:37:15.192Z,6.00
2023-04-20T17:39:27.699Z,6.00
2023-04-20T17:41:40.223Z,5.70
2023-04-20T17:43:53.013Z,6.10
2023-04-20T17:46:05.802Z,5.70
2023-04-20T17:48:18.508Z,5.70
2023-04-20T17:50:31.067Z,6.10
2023-04-20T17:52:43.713Z,5.60
2023-04-20T17:54:57.599Z,5.60
2023-04-20T17:57:10.236Z,6.00
2023-04-20T17:59:22.880Z,5.70
2023-04-20T18:01:35.876Z,5.70
2023-04-20T18:03:49.980Z,5.40
2023-04-20T18:06:03.257Z,5.30
2023-04-20T18:08:17.558Z,5.60
2023-04-20T18:10:30.273Z,5.60
2023-04-20T18:12:44.818Z,5.70
2023-04-20T18:14:57.395Z,5.70
2023-04-20T18:17:10.019Z,6.10
2023-04-20T18:19:22.785Z,5.40
2023-04-20T18:21:35.557Z,5.90
2023-04-20T18:23:48.549Z,6.00
2023-04-20T18:26:01.208Z,6.50
2023-04-20T18:28:13.751Z,5.80
2023-04-20T18:30:26.416Z,6.00
2023-04-20T18:32:39.392Z,6.10
2023-04-20T18:34:52.265Z,6.40
2023-04-20T18:37:04.923Z,6.30
2023-04-20T18:39:17.415Z,6.70
2023-04-20T18:41:30.098Z,7.00
2023-04-20T18:43:45.373Z,6.90
2023-04-20T18:45:58.030Z,7.20
2023-04-20T18:48:10.993Z,7.20
2023-04-20T18:50:24.405Z,7.50
2023-04-20T18:52:36.961Z,7.50
2023-04-20T18:54:49.558Z,7.50
2023-04-20T18:57:02.775Z,7.50
2023-04-20T18:59:15.439Z,7.50
2023-04-20T19:01:28.585Z,7.40
2023-04-20T19:03:45.376Z,7.50
2023-04-20T19:05:59.848Z,7.40
2023-04-20T19:08:12.341Z,7.60
2023-04-20T19:10:26.245Z,7.70
2023-04-20T19:12:38.805Z,7.70
2023-04-20T19:14:51.386Z,7.60
2023-04-20T19:17:06.007Z,7.50
2023-04-20T19:19:18.791Z,7.80
2023-04-20T19:21:32.646Z,7.80
2023-04-20T19:23:45.272Z,7.50
2023-04-20T19:25:57.898Z,7.70
2023-04-20T19:28:12.049Z,8.00
2023-04-20T19:30:24.709Z,8.00
2023-04-20T19:32:37.370Z,7.70
2023-04-20T19:34:52.477Z,8.00
2023-04-20T19:37:05.025Z,8.00
2023-04-20T19:39:17.689Z,8.20
2023-04-20T19:41:30.308Z,8.20
2023-04-20T19:43:42.863Z,8.30
2023-04-20T19:45:55.808Z,8.70
2023-04-20T19:48:08.477Z,8.40
2023-04-20T19:50:21.155Z,8.30
2023-04-20T19:52:35.040Z,8.20
2023-04-20T19:54:47.635Z,8.10
2023-04-20T19:57:00.168Z,8.30
2023-04-20T19:59:12.681Z,8.50
2023-04-20T20:01:25.443Z,8.60
2023-04-20T20:03:38.283Z,8.50
2023-04-20T20:05:51.107Z,8.50
2023-04-20T20:08:04.381Z,8.60
2023-04-20T20:10:16.942Z,9.40
2023-04-20T20:12:29.645Z,12.10
2023-04-20T20:14:42.238Z,12.50
2023-04-20T20:16:56.513Z,13.00
2023-04-20T20:19:09.144Z,14.60
2023-04-20T20:21:21.826Z,13.30
2023-04-20T20:23:34.475Z,13.70
2023-04-20T20:25:47.221Z,13.30
2023-04-20T20:27:59.995Z,13.00
2023-04-20T20:30:13.966Z,12.70
2023-04-20T20:32:26.613Z,12.10
2023-04-20T20:34:39.184Z,12.10
2023-04-20T20:36:53.264Z,12.70
2023-04-20T20:39:06.585Z,15.90
2023-04-20T20:41:20.570Z,15.20
2023-04-20T20:43:34.356Z,18.30
2023-04-20T20:45:47.337Z,16.60
2023-04-20T20:47:59.973Z,17.50
2023-04-20T20:50:14.689Z,13.40
2023-04-20T20:52:27.229Z,13.20
2023-04-20T20:54:39.829Z,12.20
2023-04-20T20:56:52.401Z,12.20
2023-04-20T20:59:05.068Z,11.90
2023-04-20T21:01:18.024Z,10.80
2023-04-20T21:03:31.327Z,10.80
2023-04-20T21:05:44.105Z,10.40
2023-04-20T21:07:56.784Z,10.20
2023-04-20T21:10:11.502Z,10.40
2023-04-20T21:12:24.108Z,10.60
2023-04-20T21:14:37.423Z,10.10
2023-04-20T21:16:50.019Z,10.20
2023-04-20T21:19:02.662Z,10.90
2023-04-20T21:21:16.487Z,10.90
2023-04-20T21:23:29.137Z,10.50
2023-04-20T21:25:41.696Z,11.10
2023-04-20T21:27:54.324Z,11.20
2023-04-20T21:30:07.395Z,10.60
2023-04-20T21:32:20.267Z,10.80
2023-04-20T21:34:32.945Z,11.00
2023-04-20T21:36:45.908Z,10.90
2023-04-20T21:38:58.694Z,11.20
2023-04-20T21:41:11.342Z,10.60
2023-04-20T21:43:23.970Z,11.10
2023-04-20T21:45:36.609Z,11.80
2023-04-20T21:47:49.219Z,12.30
2023-04-20T21:50:01.871Z,14.00
2023-04-20T21:52:14.421Z,16.90
2023-04-20T21:54:26.988Z,16.80
2023-04-20T21:56:39.564Z,16.00
2023-04-20T21:58:52.154Z,15.90
2023-04-20T22:01:04.871Z,14.50
2023-04-20T22:03:17.698Z,13.10
2023-04-20T22:05:30.499Z,14.70
2023-04-20T22:07:43.128Z,12.50
2023-04-20T22:09:55.809Z,12.80
2023-04-20T22:12:08.978Z,12.10
2023-04-20T22:14:21.620Z,12.70
2023-04-20T22:16:34.694Z,11.30
2023-04-20T22:18:47.959Z,11.00
2023-04-20T22:21:00.559Z,10.90
2023-04-20T22:23:13.175Z,11.00
2023-04-20T22:25:25.722Z,10.80
2023-04-20T22:27:38.684Z,10.20
2023-04-20T22:29:51.249Z,10.40
2023-04-20T22:32:03.874Z,10.40
2023-04-20T22:34:16.458Z,10.60
2023-04-20T22:36:29.044Z,11.10
2023-04-20T22:38:41.685Z,10.10
2023-04-20T22:40:54.472Z,11.20
2023-04-20T22:43:07.070Z,10.50
2023-04-20T22:45:20.340Z,10.30
2023-04-20T22:47:33.011Z,10.00
2023-04-20T22:49:46.666Z,10.50
2023-04-20T22:51:59.284Z,11.00
2023-04-20T22:54:12.078Z,10.90
2023-04-20T22:56:24.747Z,10.60
2023-04-20T22:58:37.356Z,10.60
2023-04-20T23:00:50.014Z,10.90
2023-04-20T23:03:02.731Z,11.40
2023-04-20T23:05:20.236Z,11.00
2023-04-20T23:07:33.340Z,10.70
2023-04-20T23:09:45.946Z,10.80
2023-04-20T23:11:58.623Z,11.40
2023-04-20T23:14:11.451Z,11.00
2023-04-20T23:16:24.103Z,11.10
2023-04-20T23:18:36.623Z,10.60
2023-04-20T23:20:49.149Z,11.20
2023-04-20T23:23:01.666Z,11.10
2023-04-20T23:25:14.298Z,11.60
2023-04-20T23:27:26.828Z,11.60
2023-04-20T23:29:39.403Z,11.60
2023-04-20T23:31:52.022Z,11.70
2023-04-20T23:34:04.891Z,11.90
2023-04-20T23:36:17.527Z,12.40
2023-04-20T23:38:30.052Z,11.60
2023-04-20T23:40:42.598Z,12.00
2023-04-20T23:42:55.238Z,11.50
2023-04-20T23:45:08.520Z,12.00
2023-04-20T23:47:21.077Z,12.20
2023-04-20T23:49:33.644Z,12.30
2023-04-20T23:51:46.247Z,12.10
2023-04-20T23:53:58.882Z,11.80
2023-04-20T23:56:11.766Z,11.80
2023-04-20T23:58:25.317Z,11.50
